Camas Valley, Oregon
Current Conditions -  °F | °C
As of 8:05 AM on Sunday 21 Dec 2014 (Local Time) from KRBG Reporting Station
Light Rain Light Rain  
Wind Chill: 57°   Ceiling: 2900
Heat Index: 57°   Visibility: 8mi
Dew Point: 54°   Wind: 0mph
Humidity: 89%   Direction: NA
Pressure: 30.09"   Gusts: NA
Location:  43.03°N, 123.68°W
Report Text: KRBG 211605Z AUTO 00000KT 8SM -RA OVC029 14/12 A3009 RMK AO2 P0000 T01390122
Loading
Personal Weather Stations






























Interactive Weather Map New forecast layout! Learn more

10-Day Weather Forecast

Advertisements
Track Severe Weather on mobile